Time;durP1;ratioP1;P1;durP2;ratioP2;P2;SDS_P1;SDS_P2;PMS_P1;PMS_P2;Temp;Humidity;BMP_temperature;BMP_pressure;BME280_temperature;BME280_humidity;BME280_pressure;Samples;Min_cycle;Max_cycle;Signal;HPM_P1;HPM_P2
2023/01/28 00:01:15;;;;;;;6.05;3.20;;;;;;;-1.31;82.36;93258.25;5004910;28;20014;-83
2023/01/28 00:03:41;;;;;;;6.63;3.90;;;;;;;-1.32;81.95;93263.72;5004764;28;20076;-83
2023/01/28 00:06:10;;;;;;;7.35;3.80;;;;;;;-1.31;81.81;93257.47;5004706;28;20316;-83
2023/01/28 00:08:36;;;;;;;8.18;3.85;;;;;;;-1.29;81.60;93265.84;5004726;28;20056;-83
2023/01/28 00:11:03;;;;;;;6.15;3.53;;;;;;;-1.23;81.28;93267.44;5004785;28;20018;-83
2023/01/28 00:13:29;;;;;;;6.82;3.67;;;;;;;-1.28;81.48;93275.28;5003644;28;20117;-83
2023/01/28 00:15:58;;;;;;;6.15;3.83;;;;;;;-1.26;81.25;93287.06;5004386;28;20061;-83
2023/01/28 00:18:25;;;;;;;8.35;3.90;;;;;;;-1.16;81.40;93285.53;5003463;28;20018;-83
2023/01/28 00:21:01;;;;;;;5.55;3.28;;;;;;;-1.15;81.03;93287.88;5004443;28;20030;-83
2023/01/28 00:23:28;;;;;;;6.82;3.67;;;;;;;-1.15;81.32;93289.72;5004473;28;20279;-83
2023/01/28 00:25:57;;;;;;;5.57;3.55;;;;;;;-1.22;80.49;93292.56;5004453;28;20022;-83
2023/01/28 00:28:23;;;;;;;5.03;3.40;;;;;;;-1.25;80.48;93293.06;5004421;28;20030;-83
2023/01/28 00:30:48;;;;;;;7.35;2.92;;;;;;;-1.24;80.51;93297.28;5004491;28;20228;-84
2023/01/28 00:33:13;;;;;;;7.68;3.45;;;;;;;-1.24;80.86;93295.44;5004339;28;20324;-84
2023/01/28 00:35:39;;;;;;;7.72;3.40;;;;;;;-1.22;79.82;93295.97;5003908;28;20026;-82
2023/01/28 00:38:05;;;;;;;4.93;3.10;;;;;;;-1.31;80.37;93294.06;5004230;28;20252;-84
2023/01/28 00:40:30;;;;;;;4.68;2.63;;;;;;;-1.35;80.84;93293.00;5003318;28;20040;-84
2023/01/28 00:42:56;;;;;;;6.35;3.47;;;;;;;-1.32;81.01;93302.94;5004439;28;20038;-83
2023/01/28 00:45:22;;;;;;;6.05;3.60;;;;;;;-1.34;81.13;93302.41;5004100;28;20029;-82
2023/01/28 00:47:47;;;;;;;6.05;3.58;;;;;;;-1.36;81.29;93307.09;5004148;28;20026;-82
2023/01/28 00:50:13;;;;;;;5.22;3.00;;;;;;;-1.34;80.79;93305.84;5004149;28;20022;-82
2023/01/28 00:52:39;;;;;;;5.72;3.30;;;;;;;-1.41;81.08;93303.44;5004361;28;20216;-82
2023/01/28 00:55:05;;;;;;;6.28;3.38;;;;;;;-1.40;81.59;93304.22;5006901;28;20045;-82
2023/01/28 00:57:31;;;;;;;9.32;4.10;;;;;;;-1.37;81.05;93308.16;5006279;28;20054;-82
2023/01/28 00:59:56;;;;;;;5.35;3.33;;;;;;;-1.40;80.99;93309.47;5007986;28;20029;-82
2023/01/28 01:02:22;;;;;;;6.15;3.20;;;;;;;-1.42;80.98;93304.47;5004828;28;20034;-82
2023/01/28 01:05:00;;;;;;;5.07;3.33;;;;;;;-1.48;81.24;93305.47;5004133;28;20073;-82
2023/01/28 01:07:42;;;;;;;6.60;2.95;;;;;;;-1.45;81.08;93302.34;5004273;28;20205;-82
2023/01/28 01:10:16;;;;;;;7.32;3.63;;;;;;;-1.48;81.09;93304.69;5003874;28;20029;-82
2023/01/28 01:12:42;;;;;;;6.75;3.35;;;;;;;-1.48;80.86;93307.31;5004191;28;20073;-82
2023/01/28 01:15:09;;;;;;;5.78;2.88;;;;;;;-1.51;81.23;93300.75;5003966;28;20026;-82
2023/01/28 01:17:36;;;;;;;8.27;4.00;;;;;;;-1.48;81.44;93305.47;5004027;28;20041;-82
2023/01/28 01:20:03;;;;;;;6.60;3.38;;;;;;;-1.48;81.49;93315.94;5003899;28;20030;-82
2023/01/28 01:22:35;;;;;;;6.15;3.65;;;;;;;-1.47;81.52;93307.03;5003647;28;20052;-82
2023/01/28 01:25:02;;;;;;;6.47;4.07;;;;;;;-1.47;81.64;93308.88;5003874;28;20023;-82
2023/01/28 01:27:28;;;;;;;7.93;4.32;;;;;;;-1.41;81.38;93306.03;5003818;28;20038;-82
2023/01/28 01:29:53;;;;;;;6.40;3.13;;;;;;;-1.46;81.46;93316.47;5003809;28;20026;-83
2023/01/28 01:32:19;;;;;;;6.50;3.60;;;;;;;-1.50;81.65;93318.00;5003388;28;20343;-82
2023/01/28 01:34:44;;;;;;;5.57;3.10;;;;;;;-1.52;81.56;93314.88;5003796;28;20227;-83
2023/01/28 01:37:10;;;;;;;6.63;4.15;;;;;;;-1.58;82.04;93325.53;5003778;28;20252;-83
2023/01/28 01:39:35;;;;;;;7.97;4.03;;;;;;;-1.56;82.18;93318.25;5003660;28;20134;-83
2023/01/28 01:42:01;;;;;;;5.72;3.42;;;;;;;-1.56;82.30;93313.78;5003585;28;20137;-83
2023/01/28 01:44:53;;;;;;;6.40;3.30;;;;;;;-1.54;82.13;93316.16;5003938;28;20053;-83
2023/01/28 01:47:22;;;;;;;6.55;3.22;;;;;;;-1.56;82.57;93311.19;5006256;28;20026;-83
2023/01/28 01:49:48;;;;;;;6.72;3.63;;;;;;;-1.53;82.29;93315.09;5007735;28;20065;-83
2023/01/28 01:52:18;;;;;;;7.10;3.58;;;;;;;-1.48;82.32;93323.00;5007731;28;20321;-82
2023/01/28 01:54:50;;;;;;;7.10;3.63;;;;;;;-1.54;82.05;93322.16;5007636;28;20216;-83
2023/01/28 01:57:26;;;;;;;7.80;4.30;;;;;;;-1.56;82.00;93320.84;5007450;28;20097;-83
2023/01/28 01:59:53;;;;;;;7.32;3.45;;;;;;;-1.58;81.99;93315.88;5006467;28;20034;-83
2023/01/28 02:02:18;;;;;;;6.07;3.63;;;;;;;-1.58;82.42;93317.69;5007358;28;20022;-83
2023/01/28 02:04:44;;;;;;;6.68;3.65;;;;;;;-1.56;82.58;93323.47;5007430;28;20037;-84
2023/01/28 02:07:15;;;;;;;6.93;3.83;;;;;;;-1.54;82.31;93327.41;5007223;28;20227;-84
2023/01/28 02:09:40;;;;;;;6.93;4.03;;;;;;;-1.47;82.43;93330.56;5007437;28;20022;-84
2023/01/28 02:12:08;;;;;;;7.88;3.65;;;;;;;-1.49;81.84;93331.88;5007099;28;20219;-84
2023/01/28 02:14:40;;;;;;;5.90;3.38;;;;;;;-1.52;82.04;93329.78;5007090;28;20023;-84
2023/01/28 02:17:06;;;;;;;9.02;4.15;;;;;;;-1.46;82.12;93332.16;5005977;28;20101;-84
2023/01/28 02:19:37;;;;;;;4.95;3.20;;;;;;;-1.59;81.70;93334.41;5005901;28;20037;-84
2023/01/28 02:22:36;;;;;;;6.30;3.57;;;;;;;-1.53;81.90;93331.56;5006814;28;20085;-84
2023/01/28 02:25:37;;;;;;;8.18;3.75;;;;;;;-1.55;81.71;93333.66;5007083;28;20030;-83
2023/01/28 02:28:11;;;;;;;5.72;3.45;;;;;;;-1.56;81.67;93332.09;5005624;28;20041;-84
2023/01/28 02:30:53;;;;;;;5.97;3.30;;;;;;;-1.57;81.60;93329.72;5006656;28;20030;-84
2023/01/28 02:33:26;;;;;;;;;;;;;;;-1.56;81.43;93329.47;5006075;28;20030;-84
2023/01/28 02:35:53;;;;;;;9.82;3.92;;;;;;;-1.62;81.94;93336.47;5006659;28;20218;-84
2023/01/28 02:38:20;;;;;;;5.95;3.20;;;;;;;-1.59;81.90;93340.41;5006673;28;20026;-84
2023/01/28 02:41:02;;;;;;;6.53;3.47;;;;;;;-1.57;81.46;93343.56;5005417;28;20026;-84
2023/01/28 02:43:39;;;;;;;5.45;3.03;;;;;;;-1.56;81.38;93339.16;5006691;28;20045;-84
2023/01/28 02:49:29;;;;;;;6.50;3.85;;;;;;;-1.65;81.56;93341.41;5005981;28;20033;-84
2023/01/28 02:52:12;;;;;;;5.93;3.40;;;;;;;-1.61;81.70;93342.50;5005345;28;20042;-83
2023/01/28 02:54:59;;;;;;;5.75;3.22;;;;;;;-1.67;80.98;93339.06;5006278;28;20034;-84
2023/01/28 02:57:57;;;;;;;7.70;4.32;;;;;;;-1.66;81.92;93329.41;5006001;28;20022;-84
2023/01/28 03:00:29;;;;;;;5.75;3.30;;;;;;;-1.62;81.86;93331.25;4997552;28;20224;-84
2023/01/28 03:03:03;;;;;;;6.78;3.75;;;;;;;-1.54;81.75;93332.63;5005119;28;20072;-83
2023/01/28 03:05:36;;;;;;;8.50;4.07;;;;;;;-1.53;81.80;93347.25;5006481;28;20026;-84
2023/01/28 03:09:21;;;;;;;7.10;3.70;;;;;;;-1.41;81.54;93339.25;5006097;28;20022;-83
2023/01/28 03:38:58;;;;;;;6.20;3.70;;;;;;;-1.71;80.76;93347.63;5005754;28;20216;-83
2023/01/28 03:41:25;;;;;;;7.85;4.47;;;;;;;-1.72;80.99;93348.69;5005656;28;20093;-83
2023/01/28 03:43:52;;;;;;;8.05;4.13;;;;;;;-1.78;80.75;93352.28;5005574;28;20109;-84
2023/01/28 03:46:18;;;;;;;6.22;3.85;;;;;;;-1.72;81.06;93346.06;5005353;28;20030;-83
2023/01/28 03:48:44;;;;;;;10.50;4.25;;;;;;;-1.72;80.58;93354.69;5005414;28;20049;-84
2023/01/28 03:51:10;;;;;;;5.63;3.50;;;;;;;-1.81;80.51;93353.59;5005112;28;20049;-84
2023/01/28 03:53:36;;;;;;;5.95;3.63;;;;;;;-1.74;80.54;93356.78;5005202;28;20022;-83
2023/01/28 03:56:01;;;;;;;7.15;4.30;;;;;;;-1.77;80.35;93370.34;5005140;28;20324;-84
2023/01/28 03:58:44;;;;;;;8.73;4.32;;;;;;;-1.83;80.34;93361.66;5004182;28;20027;-83
2023/01/28 04:01:10;;;;;;;7.63;4.57;;;;;;;-1.81;80.48;93361.44;5005126;28;20085;-83
2023/01/28 04:03:36;;;;;;;5.97;3.55;;;;;;;-1.79;80.21;93363.78;5004951;28;20023;-83
2023/01/28 04:06:06;;;;;;;6.60;3.80;;;;;;;-1.80;80.15;93357.75;5004916;28;20118;-83
2023/01/28 04:08:32;;;;;;;8.38;3.63;;;;;;;-1.74;80.48;93363.81;5004711;28;20042;-84
2023/01/28 04:11:14;;;;;;;8.05;3.80;;;;;;;-1.83;79.80;93366.88;5004699;28;20048;-83
2023/01/28 04:13:43;;;;;;;5.95;3.15;;;;;;;-1.82;79.73;93371.06;5004900;28;20023;-85
2023/01/28 04:16:12;;;;;;;5.05;3.17;;;;;;;-1.87;80.00;93360.59;5005343;28;20137;-84
2023/01/28 04:18:38;;;;;;;8.40;3.88;;;;;;;-1.83;80.00;93376.56;5004931;28;20022;-85
2023/01/28 04:21:04;;;;;;;8.13;3.97;;;;;;;-1.80;79.82;93375.28;5004776;28;20097;-85
2023/01/28 04:23:30;;;;;;;6.63;3.45;;;;;;;-1.81;79.81;93371.88;5005298;28;20029;-85
2023/01/28 04:25:55;;;;;;;5.88;3.13;;;;;;;-1.87;79.73;93384.09;5003794;28;20026;-85
2023/01/28 04:28:21;;;;;;;5.78;3.10;;;;;;;-1.84;79.86;93390.66;5004686;28;20022;-85
2023/01/28 04:30:46;;;;;;;6.22;3.35;;;;;;;-1.90;79.80;93379.34;5004677;28;20033;-82
2023/01/28 04:33:12;;;;;;;7.63;3.97;;;;;;;-1.89;80.53;93377.56;5004411;28;20022;-83
2023/01/28 04:35:38;;;;;;;7.50;3.83;;;;;;;-1.87;80.49;93386.72;5004368;28;20033;-83
2023/01/28 04:38:03;;;;;;;7.07;3.47;;;;;;;-1.86;80.62;93387.50;5004503;28;20026;-83
2023/01/28 04:40:29;;;;;;;6.60;3.88;;;;;;;-1.82;80.68;93396.41;5004500;28;20026;-84
2023/01/28 04:42:55;;;;;;;5.47;3.33;;;;;;;-1.85;80.46;93395.09;5004196;28;20343;-84
2023/01/28 04:45:21;;;;;;;9.02;3.90;;;;;;;-1.85;80.84;93400.31;5004227;28;20272;-84
2023/01/28 04:47:47;;;;;;;7.22;3.78;;;;;;;-1.89;80.76;93399.22;5004212;28;20025;-84
2023/01/28 04:50:13;;;;;;;7.13;3.70;;;;;;;-1.93;80.88;93400.75;5003966;28;20076;-85
2023/01/28 04:52:38;;;;;;;6.60;3.83;;;;;;;-1.90;80.77;93395.03;5004527;28;20042;-85
2023/01/28 04:55:04;;;;;;;7.30;3.85;;;;;;;-1.94;80.87;93409.63;5004842;28;20032;-84
2023/01/28 04:57:30;;;;;;;8.00;3.92;;;;;;;-1.94;81.02;93407.00;5004071;28;20261;-84
2023/01/28 04:59:55;;;;;;;6.57;3.70;;;;;;;-1.95;81.82;93405.44;5004017;28;20264;-84
2023/01/28 05:02:20;;;;;;;6.88;3.72;;;;;;;-1.96;81.85;93408.28;5004077;28;20044;-85
2023/01/28 05:04:46;;;;;;;6.00;4.00;;;;;;;-1.95;81.59;93404.66;5004257;28;20376;-86
2023/01/28 05:07:11;;;;;;;6.82;3.75;;;;;;;-2.00;81.78;93413.22;5004316;28;20052;-86
2023/01/28 05:09:37;;;;;;;6.25;3.75;;;;;;;-1.96;80.98;93414.28;5004031;28;20324;-86
2023/01/28 05:12:03;;;;;;;5.68;3.67;;;;;;;-1.94;81.53;93416.66;5003940;28;20029;-86
2023/01/28 05:14:28;;;;;;;9.75;4.72;;;;;;;-1.99;81.69;93430.47;5004264;28;20093;-84
2023/01/28 05:16:53;;;;;;;6.22;3.65;;;;;;;-1.98;81.32;93426.03;5003992;28;20376;-84
2023/01/28 05:19:19;;;;;;;7.00;4.18;;;;;;;-1.98;81.52;93428.66;5003869;28;20028;-83
2023/01/28 05:21:44;;;;;;;6.35;3.20;;;;;;;-2.04;81.36;93433.00;5003445;28;20213;-83
2023/01/28 05:24:10;;;;;;;6.53;3.50;;;;;;;-2.02;81.69;93438.78;5003756;28;20066;-83
2023/01/28 05:26:36;;;;;;;7.07;4.13;;;;;;;-2.01;81.52;93432.53;5003900;28;20141;-84
2023/01/28 05:29:02;;;;;;;6.38;3.60;;;;;;;-2.05;80.84;93442.69;5003712;28;20327;-83
2023/01/28 05:31:27;;;;;;;7.68;4.05;;;;;;;-2.03;81.16;93427.56;5003737;28;20090;-83
2023/01/28 05:33:53;;;;;;;9.52;4.15;;;;;;;-1.98;81.30;93449.53;5003953;28;20018;-83
2023/01/28 05:36:18;;;;;;;7.18;4.47;;;;;;;-1.89;80.54;93445.47;5003735;28;20049;-84
2023/01/28 05:38:44;;;;;;;7.82;3.67;;;;;;;-1.86;80.68;93448.34;5003599;28;20346;-84
2023/01/28 05:41:09;;;;;;;7.22;3.70;;;;;;;-1.91;80.84;93444.94;5003297;28;20018;-84
2023/01/28 05:43:35;;;;;;;6.45;3.97;;;;;;;-1.95;80.59;93452.44;5004179;28;20045;-84
2023/01/28 05:46:00;;;;;;;6.20;3.50;;;;;;;-1.97;80.32;93449.31;5003774;28;20046;-85
2023/01/28 05:48:26;;;;;;;6.55;3.80;;;;;;;-1.93;80.37;93439.16;5003679;28;20018;-83
2023/01/28 05:50:51;;;;;;;6.70;3.88;;;;;;;-1.91;80.83;93452.75;5006121;28;20018;-83
2023/01/28 05:53:17;;;;;;;7.13;3.88;;;;;;;-1.88;80.36;93449.66;5007261;28;20022;-82
2023/01/28 05:55:42;;;;;;;6.40;3.88;;;;;;;-1.93;80.36;93453.00;5005666;28;20026;-84
2023/01/28 05:58:07;;;;;;;7.65;4.00;;;;;;;-1.92;80.43;93448.56;5004687;28;20085;-83
2023/01/28 06:00:33;;;;;;;8.05;4.00;;;;;;;-1.93;80.37;93460.84;5003754;28;20028;-83
2023/01/28 06:02:58;;;;;;;7.07;3.70;;;;;;;-1.94;80.04;93448.78;5005457;28;20268;-84
2023/01/28 06:05:24;;;;;;;7.63;4.15;;;;;;;-1.89;80.55;93453.31;5004601;28;20018;-83
2023/01/28 06:07:49;;;;;;;7.22;4.28;;;;;;;-1.87;80.65;93465.06;5003897;28;20328;-83
2023/01/28 06:10:18;;;;;;;7.15;4.30;;;;;;;-1.86;80.27;93465.84;5003583;28;20022;-83
2023/01/28 06:12:44;;;;;;;6.63;4.07;;;;;;;-1.87;80.01;93466.91;5003553;28;20097;-84
2023/01/28 06:15:10;;;;;;;7.90;4.50;;;;;;;-1.82;80.33;93472.97;5003507;28;20018;-83
2023/01/28 06:17:35;;;;;;;6.85;3.97;;;;;;;-1.86;80.26;93481.53;5003304;28;20061;-83
2023/01/28 06:20:01;;;;;;;8.43;4.45;;;;;;;-1.89;80.32;93480.22;5003279;28;20247;-83
2023/01/28 06:22:26;;;;;;;6.85;3.95;;;;;;;-1.88;80.90;93492.22;5003385;28;20063;-83
2023/01/28 06:24:51;;;;;;;8.93;4.45;;;;;;;-1.88;80.67;93491.44;5003488;28;20042;-83
2023/01/28 06:27:17;;;;;;;9.82;5.03;;;;;;;-1.86;80.92;93490.16;5003230;28;20105;-84
2023/01/28 06:29:42;;;;;;;8.38;4.55;;;;;;;-1.83;80.64;93492.28;5003179;28;20022;-82
2023/01/28 06:32:08;;;;;;;9.00;4.80;;;;;;;-1.96;80.80;93499.72;5003779;28;20026;-83
2023/01/28 06:34:33;;;;;;;10.82;4.68;;;;;;;-1.92;80.79;93508.63;5005883;28;20097;-82
2023/01/28 06:36:59;;;;;;;8.93;4.40;;;;;;;-1.92;80.71;93511.25;5006920;28;20081;-84
2023/01/28 06:39:25;;;;;;;9.10;4.10;;;;;;;-1.85;80.48;93510.03;5006849;28;20018;-82
2023/01/28 06:41:51;;;;;;;7.10;4.07;;;;;;;-1.89;80.49;93522.00;5006898;28;20022;-83
2023/01/28 06:44:17;;;;;;;6.68;3.95;;;;;;;-1.90;80.74;93517.03;5006706;28;20379;-81
2023/01/28 06:46:42;;;;;;;7.53;3.83;;;;;;;-1.87;80.64;93522.56;5006670;28;20170;-82
2023/01/28 06:49:08;;;;;;;8.38;4.45;;;;;;;-1.87;80.67;93521.78;5006347;28;20068;-82
2023/01/28 06:51:33;;;;;;;9.30;4.97;;;;;;;-1.90;81.00;93525.63;5005318;28;20022;-84
2023/01/28 06:53:59;;;;;;;8.65;3.80;;;;;;;-1.79;80.40;93534.41;5005653;28;20025;-84
2023/01/28 06:56:24;;;;;;;8.70;4.93;;;;;;;-1.83;80.52;93539.31;5006299;28;20328;-83
2023/01/28 06:58:50;;;;;;;6.38;4.05;;;;;;;-1.80;80.42;93548.47;5006114;28;20113;-82
2023/01/28 07:01:15;;;;;;;7.90;3.97;;;;;;;-1.84;80.77;93540.34;5006246;28;20034;-83
2023/01/28 07:03:41;;;;;;;7.20;3.90;;;;;;;-1.84;81.12;93539.56;5005308;28;20026;-83
2023/01/28 07:06:06;;;;;;;7.60;4.75;;;;;;;-1.80;80.83;93538.03;5006513;28;20033;-83
2023/01/28 07:08:32;;;;;;;10.05;5.05;;;;;;;-1.79;80.81;93544.03;5006319;28;20202;-83
2023/01/28 07:10:58;;;;;;;7.43;3.80;;;;;;;-1.82;80.85;93553.16;5006491;28;20271;-83
2023/01/28 07:13:23;;;;;;;7.70;4.25;;;;;;;-1.91;80.82;93554.63;5006315;28;20220;-84
2023/01/28 07:15:49;;;;;;;10.52;5.05;;;;;;;-1.83;81.03;93560.22;5006237;28;20018;-85
2023/01/28 07:18:15;;;;;;;10.50;5.35;;;;;;;-1.86;81.18;93565.91;5004870;28;20251;-85
2023/01/28 07:20:40;;;;;;;8.27;4.80;;;;;;;-1.86;80.97;93550.25;5004708;28;20409;-86
2023/01/28 07:23:06;;;;;;;9.23;4.95;;;;;;;-1.94;80.74;93574.16;5005754;28;20057;-85
2023/01/28 07:25:31;;;;;;;9.45;5.10;;;;;;;-1.98;81.09;93565.25;5006039;28;20133;-85
2023/01/28 07:27:57;;;;;;;9.80;5.25;;;;;;;-2.00;81.47;93575.13;5006400;28;20026;-86
2023/01/28 07:30:23;;;;;;;9.18;5.03;;;;;;;-1.96;80.88;93565.00;5007280;28;20026;-86
2023/01/28 07:32:56;;;;;;;10.85;5.20;;;;;;;-1.94;81.24;93574.16;5006342;28;20259;-85
2023/01/28 07:35:22;;;;;;;10.63;5.57;;;;;;;-1.94;81.39;93586.44;5007511;28;20030;-85
2023/01/28 07:37:59;;;;;;;11.18;4.78;;;;;;;-1.94;81.07;93582.00;5006416;28;20229;-84
2023/01/28 07:40:25;;;;;;;10.85;5.75;;;;;;;-1.91;81.34;93583.38;5005161;28;20027;-86
2023/01/28 07:42:52;;;;;;;9.82;5.20;;;;;;;-1.91;81.27;93580.75;5005457;28;20192;-85
2023/01/28 07:45:17;;;;;;;9.18;5.43;;;;;;;-1.90;81.01;93588.34;5004164;28;20026;-86
2023/01/28 07:47:43;;;;;;;7.70;4.65;;;;;;;-1.84;80.99;93583.97;5005620;28;20028;-84
2023/01/28 07:50:09;;;;;;;12.27;5.28;;;;;;;-1.73;80.55;93582.25;5005668;28;20379;-85
2023/01/28 07:52:42;;;;;;;9.88;4.72;;;;;;;-1.63;80.54;93590.22;5005456;28;20109;-85
2023/01/28 07:55:15;;;;;;;10.35;5.55;;;;;;;-1.63;79.40;93595.44;5004636;28;20026;-85
2023/01/28 07:57:51;;;;;;;9.57;5.00;;;;;;;-1.62;80.06;93597.03;5005372;28;20018;-84
2023/01/28 08:00:18;;;;;;;9.40;5.18;;;;;;;-1.54;79.42;93591.38;5004059;28;20063;-83
2023/01/28 08:02:46;;;;;;;8.75;5.60;;;;;;;-1.50;79.74;93594.31;5005148;28;20133;-83
2023/01/28 08:05:14;;;;;;;10.15;5.22;;;;;;;-1.48;78.96;93600.88;5005012;28;20033;-85
2023/01/28 08:07:40;;;;;;;9.02;4.95;;;;;;;-1.47;78.74;93599.81;5005005;28;20018;-84
2023/01/28 08:10:05;;;;;;;10.30;5.43;;;;;;;-1.37;78.69;93600.97;5005155;28;20256;-85
2023/01/28 08:12:31;;;;;;;10.30;5.30;;;;;;;-1.25;78.90;93606.88;5005177;28;20133;-84
2023/01/28 08:14:56;;;;;;;8.98;4.68;;;;;;;-1.15;77.52;93606.19;5003703;28;20029;-85
2023/01/28 08:17:22;;;;;;;9.88;5.38;;;;;;;-1.09;77.99;93605.19;5004978;28;20022;-84
2023/01/28 08:19:47;;;;;;;9.57;5.05;;;;;;;-1.05;76.98;93609.69;5005015;28;20052;-84
2023/01/28 08:22:12;;;;;;;8.52;4.32;;;;;;;-1.13;76.72;93604.91;5004978;28;20038;-84
2023/01/28 08:24:43;;;;;;;9.63;4.50;;;;;;;-1.17;77.40;93614.28;5004909;28;20018;-84
2023/01/28 08:27:08;;;;;;;9.50;5.50;;;;;;;-1.19;77.55;93610.31;5004472;28;20060;-81
2023/01/28 08:29:34;;;;;;;9.05;5.28;;;;;;;-1.14;77.98;93618.22;5004431;28;20018;-82
2023/01/28 08:31:59;;;;;;;8.43;4.78;;;;;;;-1.07;77.93;93614.38;5004780;28;20033;-79
2023/01/28 08:34:25;;;;;;;8.75;5.20;;;;;;;-1.02;77.67;93611.81;5004758;28;20033;-80
2023/01/28 08:36:50;;;;;;;11.63;6.28;;;;;;;-1.01;77.20;93610.78;5004450;28;20033;-80
2023/01/28 08:39:16;;;;;;;7.95;4.15;;;;;;;-1.05;77.33;93612.28;5004356;28;20029;-79
2023/01/28 08:41:41;;;;;;;10.02;5.38;;;;;;;-0.94;76.97;93621.03;5004216;28;20367;-79
2023/01/28 08:44:07;;;;;;;9.73;4.90;;;;;;;-0.95;76.52;93606.38;5004156;28;20194;-79
2023/01/28 08:46:32;;;;;;;9.85;5.57;;;;;;;-0.90;77.13;93616.88;5004101;28;20026;-79
2023/01/28 08:48:57;;;;;;;12.82;4.68;;;;;;;-0.81;76.32;93622.47;5004239;28;20025;-78
2023/01/28 08:51:23;;;;;;;9.75;4.85;;;;;;;-0.81;76.16;93612.00;5004022;28;20097;-83
2023/01/28 08:53:48;;;;;;;9.73;4.85;;;;;;;-0.88;75.77;93620.03;5002863;28;20030;-81
2023/01/28 08:56:14;;;;;;;8.55;5.25;;;;;;;-0.78;76.42;93624.59;5003644;28;20256;-81
2023/01/28 08:58:40;;;;;;;12.07;4.97;;;;;;;-0.73;76.41;93619.41;5003947;28;20250;-81
2023/01/28 09:01:06;;;;;;;10.15;5.15;;;;;;;-0.59;75.37;93619.78;5002877;28;20213;-84
2023/01/28 09:03:31;;;;;;;8.20;4.68;;;;;;;-0.68;75.24;93616.81;5005926;28;20037;-83
2023/01/28 09:06:01;;;;;;;12.43;6.28;;;;;;;-0.68;75.28;93610.81;5005622;28;20018;-82
2023/01/28 09:08:26;;;;;;;9.52;5.50;;;;;;;-0.57;75.45;93607.25;5005023;28;20015;-80
2023/01/28 09:10:56;;;;;;;14.25;6.40;;;;;;;-0.49;75.98;93613.81;5003840;28;20018;-78
2023/01/28 09:13:22;;;;;;;11.88;6.28;;;;;;;-0.39;76.23;93621.75;5003503;28;20038;-79
2023/01/28 09:15:48;;;;;;;10.38;5.55;;;;;;;-0.37;75.80;93621.53;5003407;28;20030;-81
2023/01/28 09:18:13;;;;;;;12.48;7.00;;;;;;;-0.33;76.12;93623.38;5002174;28;20308;-78
2023/01/28 09:20:39;;;;;;;11.90;6.30;;;;;;;-0.31;77.42;93623.91;5003287;28;20049;-79
2023/01/28 09:23:05;;;;;;;11.00;6.25;;;;;;;-0.21;77.13;93621.38;5002344;28;20076;-80
2023/01/28 09:25:31;;;;;;;12.50;6.13;;;;;;;-0.23;75.49;93636.56;5003566;28;20023;-80
2023/01/28 09:27:57;;;;;;;11.82;6.18;;;;;;;-0.35;75.61;93624.69;5003678;28;20033;-79
2023/01/28 09:30:22;;;;;;;16.40;7.20;;;;;;;-0.26;76.05;93629.22;5002328;28;20031;-81
2023/01/28 09:32:52;;;;;;;11.95;6.40;;;;;;;-0.32;75.61;93634.66;5003660;28;20058;-80
2023/01/28 09:35:18;;;;;;;11.85;6.60;;;;;;;-0.39;76.62;93624.38;5003694;28;20026;-78
2023/01/28 09:37:44;;;;;;;12.38;6.40;;;;;;;-0.47;76.15;93617.00;5003437;28;20038;-80
2023/01/28 09:40:30;;;;;;;12.75;5.78;;;;;;;-0.45;76.00;93620.16;5003417;28;20026;-79
2023/01/28 09:43:09;;;;;;;8.65;4.82;;;;;;;-0.53;75.70;93626.66;5003517;28;20316;-78
2023/01/28 09:45:46;;;;;;;10.40;5.45;;;;;;;-0.55;76.14;93641.00;5003394;28;20334;-80
2023/01/28 09:48:20;;;;;;;8.55;4.80;;;;;;;-0.63;76.72;93624.72;5003150;28;20022;-80
2023/01/28 09:50:50;;;;;;;12.75;6.47;;;;;;;-0.45;76.89;93620.16;5003297;28;20065;-81
2023/01/28 09:53:20;;;;;;;8.05;5.03;;;;;;;-0.47;76.60;93624.84;5003329;28;20111;-80
2023/01/28 09:55:52;;;;;;;12.20;6.15;;;;;;;-0.53;76.52;93612.75;5003058;28;20041;-80
2023/01/28 09:58:17;;;;;;;9.52;5.22;;;;;;;-0.55;76.55;93618.25;5003318;28;20085;-80
2023/01/28 10:01:11;;;;;;;13.27;6.07;;;;;;;-0.51;76.41;93618.53;5003248;28;20030;-81
2023/01/28 10:03:53;;;;;;;10.52;6.07;;;;;;;-0.47;76.63;93624.84;5003143;28;20026;-80
2023/01/28 10:06:25;;;;;;;;;;;;;;;-0.54;75.94;93626.91;5003530;28;20201;-79
2023/01/28 10:09:21;;;;;;;10.70;5.53;;;;;;;-0.58;76.84;93620.56;5005965;28;20295;-79
2023/01/28 10:11:55;;;;;;;13.55;7.10;;;;;;;-0.64;76.78;93606.66;5006827;28;20026;-79
2023/01/28 10:14:37;;;;;;;12.32;6.25;;;;;;;-0.69;77.07;93609.22;5006891;28;20034;-79
2023/01/28 10:17:27;;;;;;;12.48;6.60;;;;;;;-0.68;77.61;93610.81;5006845;28;20025;-79
2023/01/28 10:20:04;;;;;;;12.30;6.60;;;;;;;-0.56;78.40;93602.78;5006662;28;20215;-79
2023/01/28 10:22:35;;;;;;;13.10;7.22;;;;;;;-0.40;77.58;93607.09;5005279;28;20049;-79
2023/01/28 10:25:06;;;;;;;14.40;7.50;;;;;;;-0.44;77.26;93613.88;5006772;28;20044;-79
2023/01/28 10:27:34;;;;;;;11.73;6.28;;;;;;;-0.53;77.04;93610.13;5006652;28;20634;-79
2023/01/28 10:30:19;;;;;;;17.00;8.00;;;;;;;-0.60;76.85;93620.81;5006676;28;20030;-80
2023/01/28 10:32:51;;;;;;;12.05;6.55;;;;;;;-0.68;77.24;93613.41;5006389;28;20019;-78
2023/01/28 10:35:16;;;;;;;17.13;7.35;;;;;;;-0.64;77.74;93628.38;5006432;28;20026;-78
2023/01/28 10:37:42;;;;;;;14.40;7.32;;;;;;;-0.57;78.51;93628.19;5006553;28;20324;-78
2023/01/28 10:40:16;;;;;;;14.40;7.30;;;;;;;-0.65;78.04;93621.56;5006424;28;20257;-78
2023/01/28 10:42:43;;;;;;;19.30;8.45;;;;;;;-0.62;77.85;93621.06;5006423;28;20029;-81
2023/01/28 10:45:20;;;;;;;13.10;7.70;;;;;;;-0.61;78.33;93617.41;5006436;28;20060;-81
2023/01/28 10:48:08;;;;;;;12.57;6.78;;;;;;;-0.62;77.59;93617.66;5007196;28;20026;-81
2023/01/28 10:50:34;;;;;;;12.35;6.30;;;;;;;-0.64;78.52;93622.34;5007218;28;20093;-81
2023/01/28 10:53:03;;;;;;;14.13;7.72;;;;;;;-0.67;78.40;93609.75;5006463;28;20022;-80
2023/01/28 10:55:33;;;;;;;16.75;7.30;;;;;;;-0.72;78.33;93610.50;5006618;28;20038;-82
2023/01/28 10:58:01;;;;;;;14.40;7.60;;;;;;;-0.66;79.05;93604.28;5006772;28;20340;-86
2023/01/28 11:00:35;;;;;;;15.05;8.15;;;;;;;-0.56;79.05;93602.78;5006492;28;20022;-81
2023/01/28 11:03:01;;;;;;;13.48;7.80;;;;;;;-0.39;78.63;93607.88;5006096;28;20018;-81
2023/01/28 11:05:28;;;;;;;14.00;7.63;;;;;;;-0.36;78.07;93607.41;5006349;28;20033;-81
2023/01/28 11:08:28;;;;;;;15.20;7.38;;;;;;;-0.41;77.74;93610.75;5005225;28;20026;-80
2023/01/28 11:10:55;;;;;;;13.48;6.60;;;;;;;-0.45;77.51;93607.06;4974133;28;20321;-78
2023/01/28 11:13:22;;;;;;;10.55;6.38;;;;;;;-0.45;77.73;93604.44;5006031;28;20094;-79
2023/01/28 11:16:04;;;;;;;12.07;6.10;;;;;;;-0.42;77.19;93609.97;5006027;28;20097;-78
2023/01/28 11:18:33;;;;;;;10.77;5.80;;;;;;;-0.55;76.84;93601.75;5005917;28;20038;-80
2023/01/28 11:21:03;;;;;;;9.90;5.18;;;;;;;-0.57;77.07;93607.25;5005853;28;20049;-78
2023/01/28 11:23:33;;;;;;;11.05;6.65;;;;;;;-0.48;77.22;93602.34;5005997;28;20312;-81
2023/01/28 11:26:13;;;;;;;12.80;6.85;;;;;;;-0.42;77.48;93611.81;5005740;28;20297;-81
2023/01/28 11:28:41;;;;;;;11.07;6.47;;;;;;;-0.44;76.85;93600.78;5005825;28;20324;-82
2023/01/28 11:31:09;;;;;;;12.57;6.32;;;;;;;-0.34;76.70;93606.09;5005647;28;20025;-81
2023/01/28 11:33:38;;;;;;;11.65;6.75;;;;;;;-0.31;76.11;93596.94;5005777;28;20093;-81
2023/01/28 11:36:14;;;;;;;8.93;4.57;;;;;;;-0.32;74.70;93608.47;5005364;28;20343;-80
2023/01/28 11:38:55;;;;;;;12.90;5.70;;;;;;;-0.43;75.36;93618.06;5005585;28;20018;-81
2023/01/28 11:41:34;;;;;;;9.43;5.93;;;;;;;-0.52;74.93;93596.81;5005025;28;20259;-81
2023/01/28 11:44:25;;;;;;;11.82;6.55;;;;;;;-0.47;75.87;93601.28;5005609;28;20194;-81
2023/01/28 11:46:56;;;;;;;15.25;7.05;;;;;;;-0.34;75.37;93594.84;5005022;28;20105;-80
2023/01/28 11:49:33;;;;;;;10.13;5.40;;;;;;;-0.44;74.62;93606.81;5005399;28;20053;-80
2023/01/28 11:52:09;;;;;;;10.88;6.03;;;;;;;-0.42;74.83;93596.88;5005094;28;20225;-80
2023/01/28 11:54:53;;;;;;;12.00;6.50;;;;;;;-0.39;75.70;93600.81;5005114;28;20228;-80
2023/01/28 11:57:27;;;;;;;12.10;6.40;;;;;;;-0.34;75.62;93595.63;5005051;28;20033;-80
2023/01/28 12:00:02;;;;;;;9.27;5.80;;;;;;;-0.32;75.11;93608.47;5005095;28;20034;-80
2023/01/28 12:02:49;;;;;;;9.05;5.57;;;;;;;-0.23;74.82;93586.78;5005131;28;20019;-81
2023/01/28 12:05:47;;;;;;;9.85;6.10;;;;;;;-0.18;74.93;93593.09;5004938;28;20053;-81
2023/01/28 12:08:26;;;;;;;12.18;6.35;;;;;;;-0.01;75.11;93597.13;5003839;28;20051;-78
2023/01/28 12:11:14;;;;;;;12.75;7.28;;;;;;;0.12;74.14;93609.03;5004739;28;20022;-79
2023/01/28 12:14:14;;;;;;;15.23;6.60;;;;;;;0.11;73.25;93604.03;5001728;28;20038;-78